Terminal Aerodrome Forecast
Issued by NWS

Home | Current Version | Previous Version | Text Only | Print | Product List | Glossary On
Versions: 1 2 3 4 5 6 7 8 9 10 11 12 13 14
000
FTUS43 KDTX 291720
TAFMBS
TAF
KMBS 291720Z 2918/3018 24016G26KT P6SM BKN060
     FM300000 24008KT P6SM SCT070
     FM301500 24014G23KT P6SM BKN060=

USA.gov is the U.S. government's official web portal to all federal, state and local government web resources and services.